sensor_id;sensor_type;location;lat;lon;timestamp;temperature;humidity
5940;DHT22;2995;-31.998;115.906;2023-05-13T00:02:27;15.30;99.90
5940;DHT22;2995;-31.998;115.906;2023-05-13T00:05:00;15.50;99.90
5940;DHT22;2995;-31.998;115.906;2023-05-13T00:07:36;15.50;99.90
5940;DHT22;2995;-31.998;115.906;2023-05-13T00:10:10;15.60;99.90
5940;DHT22;2995;-31.998;115.906;2023-05-13T00:12:43;15.70;99.90
5940;DHT22;2995;-31.998;115.906;2023-05-13T00:15:14;15.60;99.90
5940;DHT22;2995;-31.998;115.906;2023-05-13T00:17:45;15.50;99.90
5940;DHT22;2995;-31.998;115.906;2023-05-13T00:20:17;15.50;99.90
5940;DHT22;2995;-31.998;115.906;2023-05-13T00:22:50;15.50;99.90
5940;DHT22;2995;-31.998;115.906;2023-05-13T00:25:21;15.50;99.90
5940;DHT22;2995;-31.998;115.906;2023-05-13T00:27:53;15.60;99.90
5940;DHT22;2995;-31.998;115.906;2023-05-13T00:30:24;15.50;99.90
5940;DHT22;2995;-31.998;115.906;2023-05-13T00:32:55;15.40;99.90
5940;DHT22;2995;-31.998;115.906;2023-05-13T00:35:26;15.30;99.90
5940;DHT22;2995;-31.998;115.906;2023-05-13T00:38:00;15.20;99.90
5940;DHT22;2995;-31.998;115.906;2023-05-13T00:40:31;15.20;99.90
5940;DHT22;2995;-31.998;115.906;2023-05-13T00:43:03;15.30;99.90
5940;DHT22;2995;-31.998;115.906;2023-05-13T00:45:36;15.30;99.90
5940;DHT22;2995;-31.998;115.906;2023-05-13T00:48:09;15.30;99.90
5940;DHT22;2995;-31.998;115.906;2023-05-13T00:50:41;15.40;99.90
5940;DHT22;2995;-31.998;115.906;2023-05-13T00:53:18;15.40;99.90
5940;DHT22;2995;-31.998;115.906;2023-05-13T00:55:51;15.50;99.90
5940;DHT22;2995;-31.998;115.906;2023-05-13T00:58:22;15.50;99.90
5940;DHT22;2995;-31.998;115.906;2023-05-13T01:01:01;15.60;99.90
5940;DHT22;2995;-31.998;115.906;2023-05-13T01:03:40;15.50;99.90
5940;DHT22;2995;-31.998;115.906;2023-05-13T01:06:16;15.70;99.90
5940;DHT22;2995;-31.998;115.906;2023-05-13T01:08:55;15.80;99.90
5940;DHT22;2995;-31.998;115.906;2023-05-13T01:11:28;15.90;99.90
5940;DHT22;2995;-31.998;115.906;2023-05-13T01:14:05;16.00;99.90
5940;DHT22;2995;-31.998;115.906;2023-05-13T01:16:41;16.00;99.90
5940;DHT22;2995;-31.998;115.906;2023-05-13T01:19:30;16.10;99.90
5940;DHT22;2995;-31.998;115.906;2023-05-13T01:22:07;16.30;99.90
5940;DHT22;2995;-31.998;115.906;2023-05-13T01:24:39;16.30;99.90
5940;DHT22;2995;-31.998;115.906;2023-05-13T01:27:10;16.40;99.90
5940;DHT22;2995;-31.998;115.906;2023-05-13T01:29:41;16.40;99.90
5940;DHT22;2995;-31.998;115.906;2023-05-13T01:32:13;16.50;99.90
5940;DHT22;2995;-31.998;115.906;2023-05-13T01:34:46;16.40;99.90
5940;DHT22;2995;-31.998;115.906;2023-05-13T01:37:19;16.50;99.90
5940;DHT22;2995;-31.998;115.906;2023-05-13T01:39:51;16.60;99.90
5940;DHT22;2995;-31.998;115.906;2023-05-13T01:42:24;16.90;99.90
5940;DHT22;2995;-31.998;115.906;2023-05-13T01:44:55;16.90;99.90
5940;DHT22;2995;-31.998;115.906;2023-05-13T01:47:28;17.20;99.90
5940;DHT22;2995;-31.998;115.906;2023-05-13T01:49:59;17.30;99.90
5940;DHT22;2995;-31.998;115.906;2023-05-13T01:52:34;17.40;99.90
5940;DHT22;2995;-31.998;115.906;2023-05-13T01:55:08;17.50;99.90
5940;DHT22;2995;-31.998;115.906;2023-05-13T01:57:42;17.40;99.90
5940;DHT22;2995;-31.998;115.906;2023-05-13T02:00:17;17.50;99.90
5940;DHT22;2995;-31.998;115.906;2023-05-13T02:02:51;17.60;99.90
5940;DHT22;2995;-31.998;115.906;2023-05-13T02:05:25;17.80;99.90
5940;DHT22;2995;-31.998;115.906;2023-05-13T02:08:00;18.00;99.90
5940;DHT22;2995;-31.998;115.906;2023-05-13T02:10:33;18.10;99.90
5940;DHT22;2995;-31.998;115.906;2023-05-13T02:13:05;18.10;99.90
5940;DHT22;2995;-31.998;115.906;2023-05-13T02:15:37;18.10;99.90
5940;DHT22;2995;-31.998;115.906;2023-05-13T02:18:13;18.00;99.90
5940;DHT22;2995;-31.998;115.906;2023-05-13T02:20:46;18.00;99.90
5940;DHT22;2995;-31.998;115.906;2023-05-13T02:23:19;17.90;99.90
5940;DHT22;2995;-31.998;115.906;2023-05-13T02:25:51;17.90;99.90
5940;DHT22;2995;-31.998;115.906;2023-05-13T02:28:22;18.00;99.90
5940;DHT22;2995;-31.998;115.906;2023-05-13T02:30:53;18.30;99.90
5940;DHT22;2995;-31.998;115.906;2023-05-13T02:33:24;18.40;99.90
5940;DHT22;2995;-31.998;115.906;2023-05-13T02:35:56;18.60;99.90
5940;DHT22;2995;-31.998;115.906;2023-05-13T02:38:29;18.90;99.90
5940;DHT22;2995;-31.998;115.906;2023-05-13T02:41:02;19.00;99.90
5940;DHT22;2995;-31.998;115.906;2023-05-13T02:43:33;19.20;99.90
5940;DHT22;2995;-31.998;115.906;2023-05-13T02:46:04;19.40;99.90
5940;DHT22;2995;-31.998;115.906;2023-05-13T02:48:35;19.50;99.90
5940;DHT22;2995;-31.998;115.906;2023-05-13T02:51:07;19.20;99.90
5940;DHT22;2995;-31.998;115.906;2023-05-13T02:53:42;18.80;99.90
5940;DHT22;2995;-31.998;115.906;2023-05-13T02:56:15;18.50;99.90
5940;DHT22;2995;-31.998;115.906;2023-05-13T02:58:46;18.20;99.90
5940;DHT22;2995;-31.998;115.906;2023-05-13T03:01:18;18.20;99.90
5940;DHT22;2995;-31.998;115.906;2023-05-13T03:03:49;18.40;99.90
5940;DHT22;2995;-31.998;115.906;2023-05-13T03:06:20;18.50;99.90
5940;DHT22;2995;-31.998;115.906;2023-05-13T03:08:53;18.70;99.90
5940;DHT22;2995;-31.998;115.906;2023-05-13T03:11:25;19.10;99.90
5940;DHT22;2995;-31.998;115.906;2023-05-13T03:13:56;19.30;99.90
5940;DHT22;2995;-31.998;115.906;2023-05-13T03:16:27;19.20;99.90
5940;DHT22;2995;-31.998;115.906;2023-05-13T03:19:00;19.20;99.90
5940;DHT22;2995;-31.998;115.906;2023-05-13T03:21:32;19.10;99.90
5940;DHT22;2995;-31.998;115.906;2023-05-13T03:24:05;19.00;99.90
5940;DHT22;2995;-31.998;115.906;2023-05-13T03:26:40;19.10;99.90
5940;DHT22;2995;-31.998;115.906;2023-05-13T03:29:12;19.20;99.90
5940;DHT22;2995;-31.998;115.906;2023-05-13T03:31:43;19.40;99.90
5940;DHT22;2995;-31.998;115.906;2023-05-13T03:34:15;19.50;99.90
5940;DHT22;2995;-31.998;115.906;2023-05-13T03:36:47;19.50;99.90
5940;DHT22;2995;-31.998;115.906;2023-05-13T03:39:20;19.40;99.90
5940;DHT22;2995;-31.998;115.906;2023-05-13T03:41:53;19.20;99.90
5940;DHT22;2995;-31.998;115.906;2023-05-13T03:44:24;19.20;99.90
5940;DHT22;2995;-31.998;115.906;2023-05-13T03:46:56;19.20;99.90
5940;DHT22;2995;-31.998;115.906;2023-05-13T03:49:28;19.00;99.90
5940;DHT22;2995;-31.998;115.906;2023-05-13T03:51:59;18.90;99.90
5940;DHT22;2995;-31.998;115.906;2023-05-13T03:54:34;18.80;99.90
5940;DHT22;2995;-31.998;115.906;2023-05-13T03:57:08;18.90;99.90
5940;DHT22;2995;-31.998;115.906;2023-05-13T03:59:41;18.80;99.90
5940;DHT22;2995;-31.998;115.906;2023-05-13T04:02:15;18.80;99.90
5940;DHT22;2995;-31.998;115.906;2023-05-13T04:04:52;18.60;99.90
5940;DHT22;2995;-31.998;115.906;2023-05-13T04:07:26;18.50;99.90
5940;DHT22;2995;-31.998;115.906;2023-05-13T04:10:02;18.20;99.90
5940;DHT22;2995;-31.998;115.906;2023-05-13T04:12:36;18.20;99.90
5940;DHT22;2995;-31.998;115.906;2023-05-13T04:15:09;18.30;99.90
5940;DHT22;2995;-31.998;115.906;2023-05-13T04:17:40;18.60;99.90
5940;DHT22;2995;-31.998;115.906;2023-05-13T04:20:11;18.60;99.90
5940;DHT22;2995;-31.998;115.906;2023-05-13T04:22:43;18.80;99.90
5940;DHT22;2995;-31.998;115.906;2023-05-13T04:25:16;18.60;99.90
5940;DHT22;2995;-31.998;115.906;2023-05-13T04:27:48;18.90;99.90
5940;DHT22;2995;-31.998;115.906;2023-05-13T04:30:19;18.90;99.90
5940;DHT22;2995;-31.998;115.906;2023-05-13T04:32:50;18.90;99.90
5940;DHT22;2995;-31.998;115.906;2023-05-13T04:35:22;18.90;99.90
5940;DHT22;2995;-31.998;115.906;2023-05-13T04:37:53;18.90;99.90
5940;DHT22;2995;-31.998;115.906;2023-05-13T04:40:26;18.90;99.90
5940;DHT22;2995;-31.998;115.906;2023-05-13T04:42:57;19.20;99.90
5940;DHT22;2995;-31.998;115.906;2023-05-13T04:45:29;19.20;99.90
5940;DHT22;2995;-31.998;115.906;2023-05-13T04:48:01;19.30;99.90
5940;DHT22;2995;-31.998;115.906;2023-05-13T04:50:32;19.20;99.90
5940;DHT22;2995;-31.998;115.906;2023-05-13T04:53:04;19.10;99.90
5940;DHT22;2995;-31.998;115.906;2023-05-13T04:55:39;19.10;99.90
5940;DHT22;2995;-31.998;115.906;2023-05-13T04:58:11;19.20;99.90
5940;DHT22;2995;-31.998;115.906;2023-05-13T05:00:43;19.20;99.90
5940;DHT22;2995;-31.998;115.906;2023-05-13T05:03:14;19.40;99.90
5940;DHT22;2995;-31.998;115.906;2023-05-13T05:05:46;19.50;99.90
5940;DHT22;2995;-31.998;115.906;2023-05-13T05:08:17;19.50;99.90
5940;DHT22;2995;-31.998;115.906;2023-05-13T05:10:50;19.70;99.90
5940;DHT22;2995;-31.998;115.906;2023-05-13T05:13:21;19.70;99.90
5940;DHT22;2995;-31.998;115.906;2023-05-13T05:15:53;19.60;99.90
5940;DHT22;2995;-31.998;115.906;2023-05-13T05:18:24;19.80;99.90
5940;DHT22;2995;-31.998;115.906;2023-05-13T05:20:55;20.10;99.90
5940;DHT22;2995;-31.998;115.906;2023-05-13T05:23:26;20.20;99.90
5940;DHT22;2995;-31.998;115.906;2023-05-13T05:26:00;19.90;99.90
5940;DHT22;2995;-31.998;115.906;2023-05-13T05:28:32;19.50;99.90
5940;DHT22;2995;-31.998;115.906;2023-05-13T05:31:03;19.30;99.90
5940;DHT22;2995;-31.998;115.906;2023-05-13T05:33:34;18.90;99.90
5940;DHT22;2995;-31.998;115.906;2023-05-13T05:36:06;18.70;99.90
5940;DHT22;2995;-31.998;115.906;2023-05-13T05:38:37;18.50;99.90
5940;DHT22;2995;-31.998;115.906;2023-05-13T05:41:11;18.50;99.90
5940;DHT22;2995;-31.998;115.906;2023-05-13T05:43:43;18.40;99.90
5940;DHT22;2995;-31.998;115.906;2023-05-13T05:46:14;18.40;99.90
5940;DHT22;2995;-31.998;115.906;2023-05-13T05:48:45;18.40;99.90
5940;DHT22;2995;-31.998;115.906;2023-05-13T05:51:16;18.40;99.90
5940;DHT22;2995;-31.998;115.906;2023-05-13T05:53:48;18.40;99.90
5940;DHT22;2995;-31.998;115.906;2023-05-13T05:56:23;18.60;99.90
5940;DHT22;2995;-31.998;115.906;2023-05-13T05:58:57;18.70;99.90
5940;DHT22;2995;-31.998;115.906;2023-05-13T06:01:30;18.70;99.90
5940;DHT22;2995;-31.998;115.906;2023-05-13T06:04:04;18.70;99.90
5940;DHT22;2995;-31.998;115.906;2023-05-13T06:06:37;18.60;99.90
5940;DHT22;2995;-31.998;115.906;2023-05-13T06:09:11;18.60;99.90
5940;DHT22;2995;-31.998;115.906;2023-05-13T06:11:47;18.60;99.90
5940;DHT22;2995;-31.998;115.906;2023-05-13T06:14:21;18.70;99.90
5940;DHT22;2995;-31.998;115.906;2023-05-13T06:16:55;18.80;99.90
5940;DHT22;2995;-31.998;115.906;2023-05-13T06:19:27;18.70;99.90
5940;DHT22;2995;-31.998;115.906;2023-05-13T06:21:59;18.90;99.90
5940;DHT22;2995;-31.998;115.906;2023-05-13T06:24:30;18.90;99.90
5940;DHT22;2995;-31.998;115.906;2023-05-13T06:27:03;19.00;99.90
5940;DHT22;2995;-31.998;115.906;2023-05-13T06:29:36;19.10;99.90
5940;DHT22;2995;-31.998;115.906;2023-05-13T06:32:10;19.10;99.90
5940;DHT22;2995;-31.998;115.906;2023-05-13T06:34:42;19.00;99.90
5940;DHT22;2995;-31.998;115.906;2023-05-13T06:37:14;19.00;99.90
5940;DHT22;2995;-31.998;115.906;2023-05-13T06:39:46;19.00;99.90
5940;DHT22;2995;-31.998;115.906;2023-05-13T06:42:19;18.90;99.90
5940;DHT22;2995;-31.998;115.906;2023-05-13T06:44:50;19.00;99.90
5940;DHT22;2995;-31.998;115.906;2023-05-13T06:47:21;18.90;99.90
5940;DHT22;2995;-31.998;115.906;2023-05-13T06:49:53;18.80;99.90
5940;DHT22;2995;-31.998;115.906;2023-05-13T06:52:24;18.70;99.90
5940;DHT22;2995;-31.998;115.906;2023-05-13T06:54:55;18.70;99.90
5940;DHT22;2995;-31.998;115.906;2023-05-13T06:57:28;18.70;99.90
5940;DHT22;2995;-31.998;115.906;2023-05-13T07:00:02;18.70;99.90
5940;DHT22;2995;-31.998;115.906;2023-05-13T07:02:34;18.70;99.90
5940;DHT22;2995;-31.998;115.906;2023-05-13T07:05:06;18.80;99.90
5940;DHT22;2995;-31.998;115.906;2023-05-13T07:07:38;18.70;99.90
5940;DHT22;2995;-31.998;115.906;2023-05-13T07:10:10;18.70;99.90
5940;DHT22;2995;-31.998;115.906;2023-05-13T07:12:43;18.70;99.90
5940;DHT22;2995;-31.998;115.906;2023-05-13T07:15:15;18.70;99.90
5940;DHT22;2995;-31.998;115.906;2023-05-13T07:17:46;18.70;99.90
5940;DHT22;2995;-31.998;115.906;2023-05-13T07:20:17;18.70;99.90
5940;DHT22;2995;-31.998;115.906;2023-05-13T07:22:49;18.80;99.90
5940;DHT22;2995;-31.998;115.906;2023-05-13T07:25:21;18.90;99.90
5940;DHT22;2995;-31.998;115.906;2023-05-13T07:27:54;18.80;99.90
5940;DHT22;2995;-31.998;115.906;2023-05-13T07:30:25;18.90;99.90
5940;DHT22;2995;-31.998;115.906;2023-05-13T07:32:56;18.90;99.90
5940;DHT22;2995;-31.998;115.906;2023-05-13T07:35:27;18.80;99.90
5940;DHT22;2995;-31.998;115.906;2023-05-13T07:37:59;18.70;99.90
5940;DHT22;2995;-31.998;115.906;2023-05-13T07:40:31;18.70;99.90
5940;DHT22;2995;-31.998;115.906;2023-05-13T07:43:05;18.60;99.90
5940;DHT22;2995;-31.998;115.906;2023-05-13T07:45:36;18.60;99.90
5940;DHT22;2995;-31.998;115.906;2023-05-13T07:48:09;18.60;99.90
5940;DHT22;2995;-31.998;115.906;2023-05-13T07:50:40;18.60;99.90
5940;DHT22;2995;-31.998;115.906;2023-05-13T07:53:12;18.60;99.90
5940;DHT22;2995;-31.998;115.906;2023-05-13T07:55:43;18.60;99.90
5940;DHT22;2995;-31.998;115.906;2023-05-13T07:58:18;18.60;99.90
5940;DHT22;2995;-31.998;115.906;2023-05-13T08:00:52;18.60;99.90
5940;DHT22;2995;-31.998;115.906;2023-05-13T08:03:26;18.60;99.90
5940;DHT22;2995;-31.998;115.906;2023-05-13T08:06:00;18.60;99.90
5940;DHT22;2995;-31.998;115.906;2023-05-13T08:08:34;18.70;99.90
5940;DHT22;2995;-31.998;115.906;2023-05-13T08:11:08;18.70;99.90
5940;DHT22;2995;-31.998;115.906;2023-05-13T08:13:44;18.70;99.90
5940;DHT22;2995;-31.998;115.906;2023-05-13T08:16:17;18.90;99.90
5940;DHT22;2995;-31.998;115.906;2023-05-13T08:18:51;19.00;99.90
5940;DHT22;2995;-31.998;115.906;2023-05-13T08:21:25;18.90;99.90
5940;DHT22;2995;-31.998;115.906;2023-05-13T08:23:58;18.90;99.90
5940;DHT22;2995;-31.998;115.906;2023-05-13T08:26:30;18.90;99.90
5940;DHT22;2995;-31.998;115.906;2023-05-13T08:29:03;18.90;99.90
5940;DHT22;2995;-31.998;115.906;2023-05-13T08:31:35;18.80;99.90
5940;DHT22;2995;-31.998;115.906;2023-05-13T08:34:06;18.80;99.90
5940;DHT22;2995;-31.998;115.906;2023-05-13T08:36:38;18.70;99.90
5940;DHT22;2995;-31.998;115.906;2023-05-13T08:39:09;18.70;99.90
5940;DHT22;2995;-31.998;115.906;2023-05-13T08:41:42;18.60;99.90
5940;DHT22;2995;-31.998;115.906;2023-05-13T08:44:18;18.60;99.90
5940;DHT22;2995;-31.998;115.906;2023-05-13T08:47:03;18.50;99.90
5940;DHT22;2995;-31.998;115.906;2023-05-13T08:49:38;18.50;99.90
5940;DHT22;2995;-31.998;115.906;2023-05-13T08:52:09;18.40;99.90
5940;DHT22;2995;-31.998;115.906;2023-05-13T08:54:41;18.30;99.90
5940;DHT22;2995;-31.998;115.906;2023-05-13T08:57:13;18.40;99.90
5940;DHT22;2995;-31.998;115.906;2023-05-13T08:59:46;18.30;99.90
5940;DHT22;2995;-31.998;115.906;2023-05-13T09:02:18;18.30;99.90
5940;DHT22;2995;-31.998;115.906;2023-05-13T09:04:53;18.20;99.90
5940;DHT22;2995;-31.998;115.906;2023-05-13T09:07:25;18.10;99.90
5940;DHT22;2995;-31.998;115.906;2023-05-13T09:09:56;18.20;99.90
5940;DHT22;2995;-31.998;115.906;2023-05-13T09:12:47;18.20;99.90
5940;DHT22;2995;-31.998;115.906;2023-05-13T09:15:21;18.10;99.90
5940;DHT22;2995;-31.998;115.906;2023-05-13T09:17:54;18.00;99.90
5940;DHT22;2995;-31.998;115.906;2023-05-13T09:20:25;18.00;99.90
5940;DHT22;2995;-31.998;115.906;2023-05-13T09:22:58;18.00;99.90
5940;DHT22;2995;-31.998;115.906;2023-05-13T09:25:30;17.90;99.90
5940;DHT22;2995;-31.998;115.906;2023-05-13T09:28:03;17.90;99.90
5940;DHT22;2995;-31.998;115.906;2023-05-13T09:30:38;17.90;99.90
5940;DHT22;2995;-31.998;115.906;2023-05-13T09:33:11;17.80;99.90
5940;DHT22;2995;-31.998;115.906;2023-05-13T09:35:43;17.80;99.90
5940;DHT22;2995;-31.998;115.906;2023-05-13T09:38:16;17.70;99.90
5940;DHT22;2995;-31.998;115.906;2023-05-13T09:40:54;17.80;99.90
5940;DHT22;2995;-31.998;115.906;2023-05-13T09:43:26;17.70;99.90
5940;DHT22;2995;-31.998;115.906;2023-05-13T09:46:02;17.60;99.90
5940;DHT22;2995;-31.998;115.906;2023-05-13T09:48:34;17.50;99.90
5940;DHT22;2995;-31.998;115.906;2023-05-13T09:51:06;17.50;99.90
5940;DHT22;2995;-31.998;115.906;2023-05-13T09:53:40;17.40;99.90
5940;DHT22;2995;-31.998;115.906;2023-05-13T09:56:12;17.40;99.90
5940;DHT22;2995;-31.998;115.906;2023-05-13T09:58:51;17.40;99.90
5940;DHT22;2995;-31.998;115.906;2023-05-13T10:01:27;17.40;99.90
5940;DHT22;2995;-31.998;115.906;2023-05-13T10:04:00;17.40;99.90
5940;DHT22;2995;-31.998;115.906;2023-05-13T10:06:35;17.30;99.90
5940;DHT22;2995;-31.998;115.906;2023-05-13T10:09:09;17.30;99.90
5940;DHT22;2995;-31.998;115.906;2023-05-13T10:11:45;17.30;99.90
5940;DHT22;2995;-31.998;115.906;2023-05-13T10:14:19;17.20;99.90
5940;DHT22;2995;-31.998;115.906;2023-05-13T10:16:55;17.20;99.90
5940;DHT22;2995;-31.998;115.906;2023-05-13T10:19:30;17.20;99.90
5940;DHT22;2995;-31.998;115.906;2023-05-13T10:22:04;17.20;99.90
5940;DHT22;2995;-31.998;115.906;2023-05-13T10:24:38;17.20;99.90
5940;DHT22;2995;-31.998;115.906;2023-05-13T10:27:11;17.20;99.90
5940;DHT22;2995;-31.998;115.906;2023-05-13T10:29:43;17.20;99.90
5940;DHT22;2995;-31.998;115.906;2023-05-13T10:32:17;17.20;99.90
5940;DHT22;2995;-31.998;115.906;2023-05-13T10:34:48;17.20;99.90
5940;DHT22;2995;-31.998;115.906;2023-05-13T10:37:41;17.10;99.90
5940;DHT22;2995;-31.998;115.906;2023-05-13T10:40:37;17.10;99.90
5940;DHT22;2995;-31.998;115.906;2023-05-13T10:43:16;17.00;99.90
5940;DHT22;2995;-31.998;115.906;2023-05-13T10:45:48;17.00;99.90
5940;DHT22;2995;-31.998;115.906;2023-05-13T10:48:22;17.00;99.90
5940;DHT22;2995;-31.998;115.906;2023-05-13T10:50:55;16.90;99.90
5940;DHT22;2995;-31.998;115.906;2023-05-13T10:53:29;16.90;99.90
5940;DHT22;2995;-31.998;115.906;2023-05-13T10:56:01;16.80;99.90
5940;DHT22;2995;-31.998;115.906;2023-05-13T10:58:35;16.80;99.90
5940;DHT22;2995;-31.998;115.906;2023-05-13T11:01:17;16.80;99.90
5940;DHT22;2995;-31.998;115.906;2023-05-13T11:03:54;16.70;99.90
5940;DHT22;2995;-31.998;115.906;2023-05-13T11:06:32;16.70;99.90
5940;DHT22;2995;-31.998;115.906;2023-05-13T11:09:06;16.60;99.90
5940;DHT22;2995;-31.998;115.906;2023-05-13T11:11:37;16.50;99.90
5940;DHT22;2995;-31.998;115.906;2023-05-13T11:14:14;16.50;99.90
5940;DHT22;2995;-31.998;115.906;2023-05-13T11:16:53;16.60;99.90
5940;DHT22;2995;-31.998;115.906;2023-05-13T11:19:27;16.50;99.90
5940;DHT22;2995;-31.998;115.906;2023-05-13T11:22:03;16.50;99.90
5940;DHT22;2995;-31.998;115.906;2023-05-13T11:24:35;16.50;99.90
5940;DHT22;2995;-31.998;115.906;2023-05-13T11:27:14;16.50;99.90
5940;DHT22;2995;-31.998;115.906;2023-05-13T11:29:54;16.40;99.90
5940;DHT22;2995;-31.998;115.906;2023-05-13T11:32:52;16.30;99.90
5940;DHT22;2995;-31.998;115.906;2023-05-13T11:35:27;16.20;99.90
5940;DHT22;2995;-31.998;115.906;2023-05-13T11:38:00;16.20;99.90
5940;DHT22;2995;-31.998;115.906;2023-05-13T11:40:33;16.10;99.90
5940;DHT22;2995;-31.998;115.906;2023-05-13T11:43:06;16.10;99.90
5940;DHT22;2995;-31.998;115.906;2023-05-13T11:45:39;16.20;99.90
5940;DHT22;2995;-31.998;115.906;2023-05-13T11:48:20;16.10;99.90
5940;DHT22;2995;-31.998;115.906;2023-05-13T11:50:57;16.10;99.90
5940;DHT22;2995;-31.998;115.906;2023-05-13T11:53:28;16.00;99.90
5940;DHT22;2995;-31.998;115.906;2023-05-13T11:56:09;15.90;99.90
5940;DHT22;2995;-31.998;115.906;2023-05-13T11:58:40;15.90;99.90
5940;DHT22;2995;-31.998;115.906;2023-05-13T12:01:15;15.90;99.90
5940;DHT22;2995;-31.998;115.906;2023-05-13T12:03:49;15.90;99.90
5940;DHT22;2995;-31.998;115.906;2023-05-13T12:06:26;15.80;99.90
5940;DHT22;2995;-31.998;115.906;2023-05-13T12:09:06;15.80;99.90
5940;DHT22;2995;-31.998;115.906;2023-05-13T12:11:40;15.70;99.90
5940;DHT22;2995;-31.998;115.906;2023-05-13T12:14:15;15.70;99.90
5940;DHT22;2995;-31.998;115.906;2023-05-13T12:16:49;15.60;99.90
5940;DHT22;2995;-31.998;115.906;2023-05-13T12:19:24;15.60;99.90
5940;DHT22;2995;-31.998;115.906;2023-05-13T12:22:01;15.50;99.90
5940;DHT22;2995;-31.998;115.906;2023-05-13T12:24:34;15.50;99.90
5940;DHT22;2995;-31.998;115.906;2023-05-13T12:27:07;15.40;99.90
5940;DHT22;2995;-31.998;115.906;2023-05-13T12:29:42;15.40;99.90
5940;DHT22;2995;-31.998;115.906;2023-05-13T12:32:16;15.40;99.90
5940;DHT22;2995;-31.998;115.906;2023-05-13T12:34:49;15.30;99.90
5940;DHT22;2995;-31.998;115.906;2023-05-13T12:37:25;15.30;99.90
5940;DHT22;2995;-31.998;115.906;2023-05-13T12:40:10;15.20;99.90
5940;DHT22;2995;-31.998;115.906;2023-05-13T12:42:45;15.10;99.90
5940;DHT22;2995;-31.998;115.906;2023-05-13T12:45:16;15.20;99.90
5940;DHT22;2995;-31.998;115.906;2023-05-13T12:47:51;15.20;99.90
5940;DHT22;2995;-31.998;115.906;2023-05-13T12:50:22;15.10;99.90
5940;DHT22;2995;-31.998;115.906;2023-05-13T12:52:56;15.00;99.90
5940;DHT22;2995;-31.998;115.906;2023-05-13T12:55:27;15.00;99.90
5940;DHT22;2995;-31.998;115.906;2023-05-13T12:58:00;15.00;99.90
5940;DHT22;2995;-31.998;115.906;2023-05-13T13:00:32;15.00;99.90
5940;DHT22;2995;-31.998;115.906;2023-05-13T13:03:03;15.00;99.90
5940;DHT22;2995;-31.998;115.906;2023-05-13T13:05:34;14.90;99.90
5940;DHT22;2995;-31.998;115.906;2023-05-13T13:08:08;14.90;99.90
5940;DHT22;2995;-31.998;115.906;2023-05-13T13:10:39;14.90;99.90
5940;DHT22;2995;-31.998;115.906;2023-05-13T13:13:10;14.80;99.90
5940;DHT22;2995;-31.998;115.906;2023-05-13T13:15:42;14.70;99.90
5940;DHT22;2995;-31.998;115.906;2023-05-13T13:18:13;14.70;99.90
5940;DHT22;2995;-31.998;115.906;2023-05-13T13:20:44;14.60;99.90
5940;DHT22;2995;-31.998;115.906;2023-05-13T13:23:18;14.60;99.90
5940;DHT22;2995;-31.998;115.906;2023-05-13T13:25:49;14.50;99.90
5940;DHT22;2995;-31.998;115.906;2023-05-13T13:28:20;14.50;99.90
5940;DHT22;2995;-31.998;115.906;2023-05-13T13:30:51;14.40;99.90
5940;DHT22;2995;-31.998;115.906;2023-05-13T13:33:23;14.40;99.90
5940;DHT22;2995;-31.998;115.906;2023-05-13T13:35:54;14.40;99.90
5940;DHT22;2995;-31.998;115.906;2023-05-13T13:38:27;14.30;99.90
5940;DHT22;2995;-31.998;115.906;2023-05-13T13:40:58;14.30;99.90
5940;DHT22;2995;-31.998;115.906;2023-05-13T13:43:30;14.30;99.90
5940;DHT22;2995;-31.998;115.906;2023-05-13T13:46:01;14.20;99.90
5940;DHT22;2995;-31.998;115.906;2023-05-13T13:48:32;14.20;99.90
5940;DHT22;2995;-31.998;115.906;2023-05-13T13:51:04;14.20;99.90
5940;DHT22;2995;-31.998;115.906;2023-05-13T13:53:37;14.20;99.90
5940;DHT22;2995;-31.998;115.906;2023-05-13T13:56:08;14.10;99.90
5940;DHT22;2995;-31.998;115.906;2023-05-13T13:58:39;14.20;99.90
5940;DHT22;2995;-31.998;115.906;2023-05-13T14:01:11;14.10;99.90
5940;DHT22;2995;-31.998;115.906;2023-05-13T14:03:44;14.10;99.90
5940;DHT22;2995;-31.998;115.906;2023-05-13T14:06:18;14.10;99.90
5940;DHT22;2995;-31.998;115.906;2023-05-13T14:08:54;14.10;99.90
5940;DHT22;2995;-31.998;115.906;2023-05-13T14:11:28;14.10;99.90
5940;DHT22;2995;-31.998;115.906;2023-05-13T14:14:02;14.00;99.90
5940;DHT22;2995;-31.998;115.906;2023-05-13T14:16:41;14.00;99.90
5940;DHT22;2995;-31.998;115.906;2023-05-13T14:19:16;14.00;99.90
5940;DHT22;2995;-31.998;115.906;2023-05-13T14:21:49;14.10;99.90
5940;DHT22;2995;-31.998;115.906;2023-05-13T14:24:26;13.90;99.90
5940;DHT22;2995;-31.998;115.906;2023-05-13T14:27:00;13.90;99.90
5940;DHT22;2995;-31.998;115.906;2023-05-13T14:29:33;13.90;99.90
5940;DHT22;2995;-31.998;115.906;2023-05-13T14:32:04;13.90;99.90
5940;DHT22;2995;-31.998;115.906;2023-05-13T14:34:35;13.80;99.90
5940;DHT22;2995;-31.998;115.906;2023-05-13T14:37:07;13.90;99.90
5940;DHT22;2995;-31.998;115.906;2023-05-13T14:39:40;13.90;99.90
5940;DHT22;2995;-31.998;115.906;2023-05-13T14:42:11;13.90;99.90
5940;DHT22;2995;-31.998;115.906;2023-05-13T14:44:43;13.90;99.90
5940;DHT22;2995;-31.998;115.906;2023-05-13T14:47:14;13.90;99.90
5940;DHT22;2995;-31.998;115.906;2023-05-13T14:49:45;13.90;99.90
5940;DHT22;2995;-31.998;115.906;2023-05-13T14:52:16;13.80;99.90
5940;DHT22;2995;-31.998;115.906;2023-05-13T14:54:49;13.90;99.90
5940;DHT22;2995;-31.998;115.906;2023-05-13T14:57:21;13.90;99.90
5940;DHT22;2995;-31.998;115.906;2023-05-13T14:59:52;13.90;99.90
5940;DHT22;2995;-31.998;115.906;2023-05-13T15:02:23;13.80;99.90
5940;DHT22;2995;-31.998;115.906;2023-05-13T15:04:54;13.80;99.90
5940;DHT22;2995;-31.998;115.906;2023-05-13T15:07:26;13.70;99.90
5940;DHT22;2995;-31.998;115.906;2023-05-13T15:09:59;13.70;99.90
5940;DHT22;2995;-31.998;115.906;2023-05-13T15:12:31;13.70;99.90
5940;DHT22;2995;-31.998;115.906;2023-05-13T15:15:02;13.50;99.90
5940;DHT22;2995;-31.998;115.906;2023-05-13T15:17:34;13.50;99.90
5940;DHT22;2995;-31.998;115.906;2023-05-13T15:20:06;13.50;99.90
5940;DHT22;2995;-31.998;115.906;2023-05-13T15:22:38;13.50;99.90
5940;DHT22;2995;-31.998;115.906;2023-05-13T15:25:12;13.50;99.90
5940;DHT22;2995;-31.998;115.906;2023-05-13T15:27:43;13.50;99.90
5940;DHT22;2995;-31.998;115.906;2023-05-13T15:30:14;13.40;99.90
5940;DHT22;2995;-31.998;115.906;2023-05-13T15:32:46;13.40;99.90
5940;DHT22;2995;-31.998;115.906;2023-05-13T15:35:17;13.40;99.90
5940;DHT22;2995;-31.998;115.906;2023-05-13T15:37:48;13.40;99.90
5940;DHT22;2995;-31.998;115.906;2023-05-13T15:40:21;13.30;99.90
5940;DHT22;2995;-31.998;115.906;2023-05-13T15:42:53;13.30;99.90
5940;DHT22;2995;-31.998;115.906;2023-05-13T15:45:24;13.30;99.90
5940;DHT22;2995;-31.998;115.906;2023-05-13T15:47:56;13.20;99.90
5940;DHT22;2995;-31.998;115.906;2023-05-13T15:50:27;13.20;99.90
5940;DHT22;2995;-31.998;115.906;2023-05-13T15:52:58;13.30;99.90